Time;durP1;ratioP1;P1;durP2;ratioP2;P2;SDS_P1;SDS_P2;PMS_P1;PMS_P2;Temp;Humidity;BMP_temperature;BMP_pressure;BME280_temperature;BME280_humidity;BME280_pressure;Samples;Min_cycle;Max_cycle;Signal;HPM_P1;HPM_P2
2023/10/02 00:01:56;;;;;;;11.63;5.22;;;14.80;99.90;;;;;;5071899;28;20732;-78
2023/10/02 00:04:24;;;;;;;11.57;5.15;;;14.80;99.90;;;;;;5073588;28;20143;-77
2023/10/02 00:07:05;;;;;;;14.15;5.57;;;14.90;99.90;;;;;;5072445;28;20025;-77
2023/10/02 00:09:33;;;;;;;13.07;5.35;;;14.90;99.90;;;;;;5071948;28;20024;-78
2023/10/02 00:12:11;;;;;;;12.40;5.38;;;15.00;99.90;;;;;;5071804;28;20028;-77
2023/10/02 00:14:48;;;;;;;10.32;4.60;;;15.00;99.90;;;;;;5072697;28;20108;-78
2023/10/02 00:17:14;;;;;;;11.10;5.10;;;14.90;99.90;;;;;;5072044;28;20067;-77
2023/10/02 00:19:49;;;;;;;12.93;5.65;;;14.80;99.90;;;;;;5071551;28;20051;-79
2023/10/02 00:25:01;;;;;;;10.48;5.25;;;14.70;99.90;;;;;;5076529;28;20127;-79
2023/10/02 00:27:29;;;;;;;11.73;5.88;;;14.70;99.90;;;;;;5093255;28;20438;-78
2023/10/02 00:29:59;;;;;;;9.43;4.68;;;14.70;99.90;;;;;;5075419;28;20029;-79
2023/10/02 00:32:33;;;;;;;11.02;5.22;;;14.70;99.90;;;;;;5077086;28;20020;-79
2023/10/02 00:35:00;;;;;;;14.68;5.65;;;14.80;99.90;;;;;;5076560;28;20136;-78
2023/10/02 00:37:43;;;;;;;11.88;4.88;;;14.70;99.90;;;;;;5075491;28;20028;-78
2023/10/02 00:40:23;;;;;;;10.50;4.97;;;14.70;99.90;;;;;;5076673;28;20033;-78
2023/10/02 00:42:55;;;;;;;13.40;5.53;;;14.70;99.90;;;;;;5075094;28;20020;-78
2023/10/02 00:45:21;;;;;;;11.80;5.15;;;14.80;99.90;;;;;;5075482;28;20032;-78
2023/10/02 00:47:48;;;;;;;11.30;5.07;;;14.90;99.90;;;;;;5075059;28;20055;-78
2023/10/02 00:50:22;;;;;;;12.23;4.97;;;14.90;99.90;;;;;;5075758;28;20102;-78
2023/10/02 00:52:53;;;;;;;11.77;5.35;;;14.90;99.90;;;;;;5075317;28;20021;-79
2023/10/02 00:55:21;;;;;;;13.82;4.97;;;15.00;99.90;;;;;;5075654;28;20028;-78
2023/10/02 00:57:50;;;;;;;11.45;5.53;;;15.00;99.90;;;;;;5075249;28;20035;-79
2023/10/02 01:00:21;;;;;;;11.50;4.53;;;14.90;99.90;;;;;;5075675;28;20131;-79
2023/10/02 01:02:49;;;;;;;14.07;5.57;;;14.70;99.90;;;;;;5074406;28;20070;-79
2023/10/02 01:05:30;;;;;;;12.65;4.70;;;14.60;99.90;;;;;;5076157;28;20531;-78
2023/10/02 01:07:57;;;;;;;9.93;4.60;;;14.50;99.90;;;;;;5074598;28;20384;-78
2023/10/02 01:10:23;;;;;;;10.88;4.53;;;14.40;99.90;;;;;;5075418;28;20032;-78
2023/10/02 01:13:01;;;;;;;11.82;4.68;;;14.40;99.90;;;;;;5075753;28;20029;-78
2023/10/02 01:15:28;;;;;;;10.73;4.22;;;14.40;99.90;;;;;;5075458;28;20461;-79
2023/10/02 01:17:57;;;;;;;11.38;4.60;;;14.50;99.90;;;;;;5074825;28;20035;-78
2023/10/02 01:20:56;;;;;;;11.20;5.10;;;14.40;99.90;;;;;;5091729;28;20061;-78
2023/10/02 01:23:16;;;;;;;;;;;14.50;99.90;;;;;;5073709;28;20131;-79
2023/10/02 01:25:44;;;;;;;11.82;4.70;;;14.40;99.90;;;;;;5074685;28;20369;-79
2023/10/02 01:28:11;;;;;;;11.60;4.60;;;14.40;99.90;;;;;;5074628;28;20099;-78
2023/10/02 01:30:37;;;;;;;10.55;4.47;;;14.30;99.90;;;;;;5074623;28;20400;-83
2023/10/02 01:33:21;;;;;;;9.43;4.43;;;14.30;99.90;;;;;;5090426;28;20060;-78
2023/10/02 01:35:49;;;;;;;10.80;4.50;;;14.20;99.90;;;;;;5090954;28;20539;-78
2023/10/02 01:38:18;;;;;;;11.82;4.93;;;14.20;99.90;;;;;;5074804;28;20025;-78
2023/10/02 01:40:54;;;;;;;11.82;4.78;;;14.20;99.90;;;;;;5090691;28;20032;-79
2023/10/02 01:43:26;;;;;;;11.80;4.40;;;14.10;99.90;;;;;;5074681;28;20077;-78
2023/10/02 01:45:56;;;;;;;10.80;4.20;;;14.10;99.90;;;;;;5074056;28;20067;-77
2023/10/02 01:48:41;;;;;;;11.90;4.50;;;14.10;99.90;;;;;;5091328;28;20028;-77
2023/10/02 01:54:15;;;;;;;12.85;4.43;;;14.10;99.90;;;;;;5041663;28;20033;-78
2023/10/02 01:56:45;;;;;;;9.10;4.05;;;14.00;99.90;;;;;;5074077;28;20027;-83
2023/10/02 01:59:14;;;;;;;11.57;5.38;;;14.10;99.90;;;;;;5074484;28;20032;-78
2023/10/02 02:01:52;;;;;;;12.00;5.05;;;14.00;99.90;;;;;;5075032;28;20016;-79
2023/10/02 02:04:28;;;;;;;11.15;4.70;;;14.00;99.90;;;;;;5074101;28;20028;-77
2023/10/02 02:06:58;;;;;;;12.27;4.75;;;14.00;99.90;;;;;;5073555;28;20428;-78
2023/10/02 02:09:33;;;;;;;10.50;4.38;;;14.00;99.90;;;;;;5075154;28;20025;-78
2023/10/02 02:12:07;;;;;;;11.02;4.55;;;14.10;99.90;;;;;;5073503;28;20028;-78
2023/10/02 02:14:32;;;;;;;10.88;4.35;;;14.10;99.90;;;;;;5075401;28;20017;-78
2023/10/02 02:16:59;;;;;;;11.48;4.65;;;14.00;99.90;;;;;;5073489;28;20085;-80
2023/10/02 02:19:25;;;;;;;11.23;4.38;;;14.00;99.90;;;;;;5075372;28;20086;-80
2023/10/02 02:21:56;;;;;;;11.23;4.97;;;14.00;99.90;;;;;;5073525;28;20025;-81
2023/10/02 02:24:23;;;;;;;9.88;3.70;;;14.10;99.90;;;;;;5075354;28;20052;-80
2023/10/02 02:26:57;;;;;;;9.13;4.00;;;14.10;99.90;;;;;;5073642;28;20063;-79
2023/10/02 02:29:26;;;;;;;11.63;4.05;;;14.10;99.90;;;;;;5090844;28;20029;-78
2023/10/02 02:31:55;;;;;;;8.98;4.15;;;14.10;99.90;;;;;;5073184;28;20028;-78
2023/10/02 02:34:23;;;;;;;10.80;4.65;;;14.00;99.90;;;;;;5073128;28;20378;-79
2023/10/02 02:36:49;;;;;;;9.80;3.97;;;14.10;99.90;;;;;;5074047;28;20027;-79
2023/10/02 02:39:15;;;;;;;10.10;4.20;;;14.10;99.90;;;;;;5073324;28;20033;-78
2023/10/02 02:42:09;;;;;;;9.07;4.05;;;14.10;99.90;;;;;;5073348;28;20054;-84
2023/10/02 02:44:47;;;;;;;12.38;4.50;;;14.20;99.90;;;;;;5074074;28;20027;-78
2023/10/02 02:47:14;;;;;;;9.02;4.28;;;14.00;99.90;;;;;;5072997;28;20062;-79
2023/10/02 02:49:51;;;;;;;10.38;4.28;;;14.00;99.90;;;;;;5074377;28;20029;-79
2023/10/02 02:52:26;;;;;;;9.43;4.22;;;14.10;99.90;;;;;;5089966;28;20483;-79
2023/10/02 02:55:12;;;;;;;12.32;4.35;;;14.10;99.90;;;;;;5073041;28;20107;-79
2023/10/02 02:57:39;;;;;;;11.40;4.30;;;14.00;99.90;;;;;;5074293;28;20016;-79
2023/10/02 03:02:53;;;;;;;10.75;4.28;;;13.90;99.90;;;;;;5073577;28;20070;-79
2023/10/02 03:05:21;;;;;;;12.15;4.18;;;13.80;99.90;;;;;;5073307;28;20115;-79
2023/10/02 03:07:54;;;;;;;10.20;4.30;;;13.70;99.90;;;;;;5072674;28;20029;-80
2023/10/02 03:10:23;;;;;;;12.90;4.75;;;13.70;99.90;;;;;;5074362;28;20032;-79
2023/10/02 03:12:48;;;;;;;12.38;4.45;;;13.70;99.90;;;;;;5072679;28;20021;-80
2023/10/02 03:23:38;;;;;;;12.98;4.80;;;13.80;99.90;;;;;;5073530;28;20024;-78
2023/10/02 03:26:14;;;;;;;10.43;4.50;;;13.90;99.90;;;;;;5071969;28;20135;-79
2023/10/02 03:28:39;;;;;;;10.45;3.88;;;13.80;99.90;;;;;;5072977;28;20031;-78
2023/10/02 03:31:16;;;;;;;13.90;4.53;;;13.70;99.90;;;;;;5073503;28;20021;-79
2023/10/02 03:33:42;;;;;;;13.00;4.60;;;13.70;99.90;;;;;;5073557;28;20044;-79
2023/10/02 03:36:14;;;;;;;11.30;4.38;;;13.60;99.90;;;;;;5073071;28;20489;-79
2023/10/02 03:38:42;;;;;;;11.45;4.50;;;13.60;99.90;;;;;;5072016;28;20024;-78
2023/10/02 03:41:10;;;;;;;13.07;4.13;;;13.60;99.90;;;;;;5088541;28;20033;-79
2023/10/02 03:43:46;;;;;;;11.48;4.72;;;13.60;99.90;;;;;;5072350;28;20144;-78
2023/10/02 03:46:15;;;;;;;10.98;3.88;;;13.60;99.90;;;;;;5073096;28;20084;-78
2023/10/02 03:48:41;;;;;;;13.52;4.93;;;13.60;99.90;;;;;;5072476;28;20123;-78
2023/10/02 03:51:07;;;;;;;11.20;4.78;;;13.70;99.90;;;;;;5073143;28;20029;-79
2023/10/02 03:53:38;;;;;;;10.48;4.10;;;13.70;99.90;;;;;;5072512;28;20055;-79
2023/10/02 03:58:51;;;;;;;11.13;4.65;;;13.70;99.90;;;;;;5072780;28;20038;-85
2023/10/02 04:01:29;;;;;;;12.85;4.32;;;13.70;99.90;;;;;;5073064;28;20032;-78
2023/10/02 04:06:43;;;;;;;10.52;4.45;;;13.60;99.90;;;;;;5073055;28;20028;-78
2023/10/02 04:09:21;;;;;;;10.15;4.82;;;13.50;99.90;;;;;;5071412;28;20148;-78
2023/10/02 04:11:53;;;;;;;9.60;4.10;;;13.40;99.90;;;;;;5088492;28;20115;-85
2023/10/02 04:14:32;;;;;;;10.30;4.35;;;13.50;99.90;;;;;;5071915;28;20025;-78
2023/10/02 04:17:13;;;;;;;13.40;4.72;;;13.50;99.90;;;;;;5072694;28;20064;-78
2023/10/02 04:19:48;;;;;;;11.82;4.32;;;13.40;99.90;;;;;;5072013;28;20478;-77
2023/10/02 04:22:23;;;;;;;10.82;4.40;;;13.40;99.90;;;;;;5071817;28;20028;-78
2023/10/02 04:24:54;;;;;;;12.10;4.20;;;13.50;99.90;;;;;;5072254;28;20139;-82
2023/10/02 04:32:42;;;;;;;8.93;3.83;;;13.50;99.90;;;;;;5073036;28;20164;-78
2023/10/02 04:35:44;;;;;;;8.68;4.00;;;13.50;99.90;;;;;;5088533;28;20032;-78
2023/10/02 04:37:59;;;;;;;9.27;4.07;;;13.40;99.90;;;;;;5071798;28;20027;-78
2023/10/02 04:40:37;;;;;;;11.65;4.43;;;13.40;99.90;;;;;;5072070;28;20461;-78
2023/10/02 04:43:19;;;;;;;11.93;4.65;;;13.40;99.90;;;;;;5072483;28;20400;-78
2023/10/02 04:45:46;;;;;;;12.32;4.60;;;13.50;99.90;;;;;;5071831;28;20036;-78
2023/10/02 04:48:13;;;;;;;13.00;4.55;;;13.50;99.90;;;;;;5071313;28;20036;-78
2023/10/02 04:50:47;;;;;;;10.07;4.43;;;13.50;99.90;;;;;;5071762;28;20491;-78
2023/10/02 04:55:43;;;;;;;12.52;4.72;;;13.50;99.90;;;;;;5072612;28;20029;-78
2023/10/02 04:58:14;;;;;;;11.55;4.40;;;13.50;99.90;;;;;;5070998;28;20645;-78
2023/10/02 05:03:27;;;;;;;10.90;4.55;;;13.40;99.90;;;;;;5073013;28;20034;-78
2023/10/02 05:05:53;;;;;;;11.52;4.15;;;13.30;99.90;;;;;;5071282;28;20035;-83
2023/10/02 05:09:19;;;;;;;10.85;3.85;;;13.40;99.90;;;;;;5072795;28;20020;-78
2023/10/02 05:11:46;;;;;;;10.15;4.25;;;13.50;99.90;;;;;;5075731;28;20025;-78
2023/10/02 05:14:15;;;;;;;11.50;4.00;;;13.40;99.90;;;;;;5075642;28;20066;-78
2023/10/02 05:16:42;;;;;;;12.75;4.53;;;13.30;99.90;;;;;;5076371;28;20048;-78
2023/10/02 05:19:09;;;;;;;11.80;4.15;;;13.30;99.90;;;;;;5074155;28;20060;-78
2023/10/02 05:21:50;;;;;;;10.48;4.30;;;13.20;99.90;;;;;;5074649;28;20469;-78
2023/10/02 05:24:18;;;;;;;14.85;4.70;;;13.20;99.90;;;;;;5074284;28;20479;-79
2023/10/02 05:26:44;;;;;;;10.63;4.20;;;13.20;99.90;;;;;;5075754;28;20060;-79
2023/10/02 05:29:17;;;;;;;13.32;5.10;;;13.10;99.90;;;;;;5075275;28;20032;-78
2023/10/02 05:31:47;;;;;;;10.25;4.03;;;13.10;99.90;;;;;;5074686;28;20090;-78
2023/10/02 05:34:24;;;;;;;12.85;4.65;;;13.10;99.90;;;;;;5075451;28;20068;-78
2023/10/02 05:37:23;;;;;;;12.15;4.82;;;13.00;99.90;;;;;;5076027;28;20028;-79
2023/10/02 05:39:50;;;;;;;11.32;4.40;;;13.00;99.90;;;;;;5076369;28;20082;-79
2023/10/02 05:42:16;;;;;;;12.52;4.55;;;13.00;99.90;;;;;;5091423;28;20375;-79
2023/10/02 05:44:43;;;;;;;12.10;4.53;;;13.00;99.90;;;;;;5075265;28;20039;-79
2023/10/02 05:47:11;;;;;;;10.23;4.10;;;13.10;99.90;;;;;;5073747;28;20031;-79
2023/10/02 05:49:43;;;;;;;11.05;4.20;;;13.20;99.90;;;;;;5074650;28;20409;-79
2023/10/02 05:52:09;;;;;;;11.25;4.45;;;13.20;99.90;;;;;;5091004;28;20044;-78
2023/10/02 05:54:37;;;;;;;11.02;4.15;;;13.30;99.90;;;;;;5074414;28;20501;-78
2023/10/02 05:57:08;;;;;;;10.77;4.20;;;13.30;99.90;;;;;;5075163;28;20028;-78
2023/10/02 05:59:44;;;;;;;10.85;4.05;;;13.40;99.90;;;;;;5075112;28;20104;-78
2023/10/02 06:02:14;;;;;;;11.05;4.53;;;13.40;99.90;;;;;;5074771;28;20097;-79
2023/10/02 06:04:47;;;;;;;13.40;4.50;;;13.50;99.90;;;;;;5075168;28;20450;-78
2023/10/02 06:07:19;;;;;;;9.77;3.75;;;13.50;99.90;;;;;;5074639;28;20078;-78
2023/10/02 06:09:46;;;;;;;13.73;4.57;;;13.50;99.90;;;;;;5075259;28;20077;-78
2023/10/02 06:12:13;;;;;;;12.07;4.55;;;13.50;99.90;;;;;;5074359;28;20020;-78
2023/10/02 06:14:45;;;;;;;10.68;4.40;;;13.50;99.90;;;;;;5090513;28;20057;-78
2023/10/02 06:17:14;;;;;;;12.25;4.78;;;13.50;99.90;;;;;;5073513;28;20028;-78
2023/10/02 06:19:44;;;;;;;11.63;4.05;;;13.40;99.90;;;;;;5073710;28;20097;-78
2023/10/02 06:22:13;;;;;;;12.77;4.50;;;13.40;99.90;;;;;;5074762;28;20408;-78
2023/10/02 06:24:39;;;;;;;9.77;4.35;;;13.40;99.90;;;;;;5075064;28;20484;-78
2023/10/02 06:27:12;;;;;;;11.40;4.65;;;13.30;99.90;;;;;;5090284;28;20035;-79
2023/10/02 06:29:39;;;;;;;15.40;4.68;;;13.40;99.90;;;;;;5075031;28;20024;-78
2023/10/02 06:32:09;;;;;;;13.07;4.50;;;13.50;99.90;;;;;;5074248;28;20021;-78
2023/10/02 06:34:39;;;;;;;12.02;4.25;;;13.50;99.90;;;;;;5073445;28;20052;-77
2023/10/02 06:37:08;;;;;;;12.70;4.63;;;13.50;99.90;;;;;;5072662;28;20052;-78
2023/10/02 06:39:40;;;;;;;14.68;4.97;;;13.50;99.90;;;;;;5074476;28;20036;-77
2023/10/02 06:42:09;;;;;;;13.73;5.00;;;13.60;99.90;;;;;;5074254;28;20112;-78
2023/10/02 06:44:52;;;;;;;11.27;4.47;;;13.70;99.90;;;;;;5073038;28;20059;-77
2023/10/02 06:47:21;;;;;;;13.68;5.03;;;13.70;99.90;;;;;;5072716;28;20028;-78
2023/10/02 06:49:47;;;;;;;11.35;4.63;;;13.80;99.90;;;;;;5074443;28;20036;-78
2023/10/02 06:52:16;;;;;;;13.05;4.78;;;13.90;99.90;;;;;;5072506;28;20028;-78
2023/10/02 06:54:44;;;;;;;15.55;5.18;;;13.90;99.90;;;;;;5074283;28;20029;-77
2023/10/02 06:57:14;;;;;;;12.95;5.03;;;13.90;99.90;;;;;;5072518;28;20461;-78
2023/10/02 06:59:41;;;;;;;17.48;5.32;;;13.90;99.90;;;;;;5072975;28;20029;-78
2023/10/02 07:02:09;;;;;;;14.48;5.18;;;14.00;99.90;;;;;;5055611;28;20029;-78
2023/10/02 07:04:36;;;;;;;12.75;5.05;;;14.00;99.90;;;;;;5069720;28;20036;-78
2023/10/02 07:07:07;;;;;;;12.60;5.05;;;14.10;99.90;;;;;;5069272;28;20120;-79
2023/10/02 07:09:37;;;;;;;13.18;5.13;;;14.20;99.90;;;;;;5069980;28;20114;-77
2023/10/02 07:12:09;;;;;;;14.15;5.00;;;14.20;99.90;;;;;;5083602;28;20024;-79
2023/10/02 07:14:43;;;;;;;16.50;5.78;;;14.30;99.90;;;;;;5073769;28;20524;-78
2023/10/02 07:17:23;;;;;;;14.45;5.07;;;14.40;99.90;;;;;;5073565;28;20024;-80
2023/10/02 07:19:52;;;;;;;14.13;5.18;;;14.40;99.90;;;;;;5074179;28;20123;-79
2023/10/02 07:22:23;;;;;;;11.15;4.55;;;14.40;99.90;;;;;;5091884;28;20546;-78
2023/10/02 07:24:55;;;;;;;15.13;5.35;;;14.50;99.90;;;;;;5093111;28;20032;-77
2023/10/02 07:27:25;;;;;;;;;;;14.60;99.90;;;;;;5093569;28;20028;-78
2023/10/02 07:29:53;;;;;;;13.13;4.80;;;14.60;99.90;;;;;;5078657;28;19919;-78
2023/10/02 07:32:19;;;;;;;13.27;5.00;;;14.70;99.90;;;;;;5067473;28;20082;-78
2023/10/02 07:34:50;;;;;;;16.50;5.53;;;14.70;99.90;;;;;;5068596;28;20044;-79
2023/10/02 07:37:21;;;;;;;16.00;5.35;;;14.80;99.90;;;;;;5061844;28;20040;-79
2023/10/02 07:39:48;;;;;;;13.13;4.63;;;14.90;99.90;;;;;;5059831;28;20028;-79
2023/10/02 07:42:16;;;;;;;17.65;5.38;;;14.90;99.90;;;;;;5070555;28;20120;-85
2023/10/02 07:44:42;;;;;;;14.68;4.88;;;15.00;99.90;;;;;;5060159;28;20056;-79
2023/10/02 07:47:16;;;;;;;13.30;5.20;;;15.10;99.90;;;;;;5072670;28;20112;-79
2023/10/02 07:49:52;;;;;;;19.20;6.20;;;15.10;99.90;;;;;;5071560;28;20025;-80
2023/10/02 07:52:26;;;;;;;15.60;5.32;;;15.20;99.90;;;;;;5070456;28;20377;-78
2023/10/02 07:54:59;;;;;;;13.73;5.45;;;15.30;99.90;;;;;;5074447;28;20036;-78
2023/10/02 07:57:32;;;;;;;16.27;5.20;;;15.30;99.90;;;;;;5060312;28;20074;-78
2023/10/02 08:00:33;;;;;;;15.43;5.15;;;15.40;99.90;;;;;;5070999;28;20128;-78
2023/10/02 08:02:52;;;;;;;14.43;4.82;;;15.50;99.90;;;;;;5067730;28;20107;-78
2023/10/02 08:05:20;;;;;;;12.75;5.03;;;15.60;99.90;;;;;;5067054;28;20092;-78
2023/10/02 08:07:46;;;;;;;14.15;5.55;;;15.70;99.90;;;;;;5071416;28;20032;-79
2023/10/02 08:10:15;;;;;;;13.65;5.63;;;15.80;99.90;;;;;;5065497;28;20489;-77
2023/10/02 08:12:54;;;;;;;14.60;5.53;;;15.80;99.90;;;;;;5071931;28;20470;-78
2023/10/02 08:15:26;;;;;;;13.77;5.40;;;15.90;99.90;;;;;;5069495;28;20024;-77
2023/10/02 08:20:37;;;;;;;;;;;16.10;99.90;;;;;;5066874;28;20087;-78
2023/10/02 08:23:22;;;;;;;14.55;5.57;;;16.20;99.90;;;;;;5070365;28;19904;-78
2023/10/02 08:26:02;;;;;;;17.25;5.43;;;16.30;99.90;;;;;;5053880;28;20459;-78
2023/10/02 08:28:33;;;;;;;15.02;5.55;;;16.30;99.90;;;;;;5070166;28;20078;-77
2023/10/02 08:31:02;;;;;;;15.13;5.95;;;16.50;99.90;;;;;;5067088;28;20031;-77
2023/10/02 08:33:33;;;;;;;16.58;5.60;;;16.60;99.90;;;;;;5069429;28;20045;-78
2023/10/02 08:36:01;;;;;;;13.55;5.03;;;16.60;99.90;;;;;;5069776;28;20366;-77
2023/10/02 08:38:27;;;;;;;14.90;5.35;;;16.70;99.90;;;;;;5068845;28;20024;-77
2023/10/02 08:41:02;;;;;;;13.45;5.15;;;16.80;99.90;;;;;;5053181;28;20481;-78
2023/10/02 08:43:29;;;;;;;16.08;5.72;;;16.80;99.90;;;;;;5069374;28;20035;-77
2023/10/02 08:45:56;;;;;;;15.40;5.65;;;16.90;99.90;;;;;;5069466;28;20435;-77
2023/10/02 08:48:23;;;;;;;14.70;5.47;;;16.90;99.90;;;;;;5072036;28;20269;-78
2023/10/02 08:50:49;;;;;;;15.48;5.38;;;17.00;99.90;;;;;;5073535;28;20366;-78
2023/10/02 08:53:21;;;;;;;13.70;5.63;;;17.00;99.90;;;;;;5071657;28;20050;-77
2023/10/02 08:56:21;;;;;;;18.27;5.68;;;17.10;99.90;;;;;;5072530;28;20473;-78
2023/10/02 08:58:47;;;;;;;16.38;5.45;;;17.10;99.90;;;;;;5056728;28;20024;-78
2023/10/02 09:01:20;;;;;;;14.73;5.60;;;17.20;99.90;;;;;;5072324;28;20021;-78
2023/10/02 09:06:41;;;;;;;17.50;5.65;;;17.30;99.90;;;;;;5068999;28;20098;-77
2023/10/02 09:09:17;;;;;;;14.30;4.93;;;17.30;99.90;;;;;;5068776;28;20079;-79
2023/10/02 09:11:51;;;;;;;15.20;5.30;;;17.40;99.90;;;;;;5069436;28;20024;-78
2023/10/02 09:14:39;;;;;;;13.88;5.68;;;17.40;99.90;;;;;;5069516;28;20020;-77
2023/10/02 09:17:19;;;;;;;17.30;6.03;;;17.40;99.90;;;;;;5069568;28;20031;-82
2023/10/02 09:20:07;;;;;;;13.32;5.97;;;17.50;99.90;;;;;;5073024;28;20445;-78
2023/10/02 09:22:41;;;;;;;12.80;4.63;;;17.60;99.90;;;;;;5072574;28;20028;-77
2023/10/02 09:25:26;;;;;;;12.68;4.88;;;17.60;99.90;;;;;;5072167;28;20027;-78
2023/10/02 09:28:04;;;;;;;14.10;4.97;;;17.60;99.90;;;;;;5068922;28;20013;-78
2023/10/02 09:33:07;;;;;;;12.25;4.93;;;17.70;99.90;;;;;;5069450;28;20048;-77
2023/10/02 09:38:04;;;;;;;15.98;5.00;;;17.80;99.90;;;;;;5070466;28;20047;-77
2023/10/02 09:43:35;;;;;;;14.82;5.03;;;17.90;99.90;;;;;;5068611;28;20043;-80
2023/10/02 09:46:05;;;;;;;12.90;5.00;;;18.00;99.90;;;;;;5072680;28;20033;-79
2023/10/02 09:48:46;;;;;;;14.63;5.57;;;18.10;99.90;;;;;;5068909;28;20028;-77
2023/10/02 09:51:30;;;;;;;16.33;5.47;;;18.10;99.90;;;;;;5068601;28;20104;-78
2023/10/02 09:54:08;;;;;;;15.73;5.43;;;18.10;99.90;;;;;;5068446;28;20261;-80
2023/10/02 09:57:04;;;;;;;12.15;4.70;;;18.20;99.90;;;;;;5069133;28;20017;-77
2023/10/02 09:59:37;;;;;;;12.95;5.25;;;18.30;99.90;;;;;;5068544;28;20074;-77
2023/10/02 10:05:02;;;;;;;14.95;5.95;;;18.50;99.90;;;;;;5069391;28;20105;-79
2023/10/02 10:07:46;;;;;;;19.05;7.03;;;18.50;99.90;;;;;;5071414;28;20120;-78
2023/10/02 10:10:48;;;;;;;14.43;5.28;;;18.70;99.90;;;;;;5071191;28;20408;-78
2023/10/02 10:13:36;;;;;;;17.27;5.75;;;18.80;99.90;;;;;;5067918;28;20025;-77
2023/10/02 10:16:20;;;;;;;15.38;5.80;;;18.90;99.90;;;;;;5072130;28;20024;-78
2023/10/02 10:24:56;;;;;;;20.42;5.88;;;19.10;99.90;;;;;;5041985;28;20025;-82
2023/10/02 10:27:40;;;;;;;18.30;6.55;;;19.20;99.90;;;;;;5055502;28;20021;-83
2023/10/02 10:32:47;;;;;;;21.03;7.10;;;19.40;99.90;;;;;;5068443;28;20036;-77
2023/10/02 10:35:33;;;;;;;18.92;6.97;;;19.50;99.90;;;;;;5071925;28;20028;-80
2023/10/02 10:37:59;;;;;;;21.02;7.00;;;19.60;99.90;;;;;;5071098;28;20021;-79
2023/10/02 10:41:00;;;;;;;18.13;6.13;;;19.60;99.90;;;;;;5071085;28;20035;-83
2023/10/02 10:43:43;;;;;;;17.70;5.82;;;19.70;99.90;;;;;;5070602;28;20029;-80
2023/10/02 10:46:16;;;;;;;14.60;6.10;;;19.90;99.90;;;;;;5054731;28;20029;-84
2023/10/02 10:48:45;;;;;;;14.30;6.13;;;19.90;99.90;;;;;;5070314;28;20469;-79
2023/10/02 10:51:27;;;;;;;19.25;7.03;;;19.90;99.90;;;;;;5067900;28;20031;-80
2023/10/02 10:54:12;;;;;;;19.73;6.07;;;20.10;99.90;;;;;;5070120;28;20038;-78
2023/10/02 10:56:44;;;;;;;20.15;7.22;;;20.10;99.90;;;;;;5070933;28;20117;-83
2023/10/02 10:59:24;;;;;;;19.25;6.97;;;20.30;99.90;;;;;;5070067;28;20364;-77
2023/10/02 11:02:09;;;;;;;24.08;7.15;;;20.40;99.90;;;;;;5071075;28;20027;-79
2023/10/02 11:04:52;;;;;;;17.35;6.85;;;20.50;99.90;;;;;;5070914;28;20054;-79
2023/10/02 11:07:21;;;;;;;20.58;7.60;;;20.60;99.90;;;;;;5069118;28;20111;-79
2023/10/02 11:10:14;;;;;;;24.15;7.43;;;20.70;99.90;;;;;;5070691;28;20025;-78
2023/10/02 11:12:40;;;;;;;20.55;7.40;;;20.70;99.90;;;;;;5066893;28;20059;-82
2023/10/02 11:15:28;;;;;;;20.08;7.47;;;20.80;99.90;;;;;;5070098;28;20025;-78
2023/10/02 11:18:18;;;;;;;23.33;7.60;;;20.90;99.90;;;;;;5067723;28;20107;-78
2023/10/02 11:20:45;;;;;;;18.42;6.85;;;21.00;99.90;;;;;;5067401;28;20033;-78
2023/10/02 11:23:10;;;;;;;25.25;7.65;;;21.10;99.90;;;;;;5065584;28;20039;-84
2023/10/02 11:25:50;;;;;;;20.50;7.43;;;21.30;99.90;;;;;;5068679;28;20103;-78
2023/10/02 11:28:28;;;;;;;20.38;7.50;;;21.30;99.90;;;;;;5068248;28;20025;-80
2023/10/02 11:31:29;;;;;;;19.45;7.78;;;21.40;99.90;;;;;;5069543;28;20029;-77
2023/10/02 11:34:05;;;;;;;21.38;7.80;;;21.50;99.90;;;;;;5070753;28;20052;-77
2023/10/02 11:36:50;;;;;;;21.10;7.85;;;21.60;99.90;;;;;;5064484;28;20025;-78
2023/10/02 11:39:16;;;;;;;21.33;7.03;;;21.60;99.90;;;;;;5063825;28;20415;-84
2023/10/02 11:41:43;;;;;;;22.35;7.88;;;21.60;99.90;;;;;;5065797;28;20067;-79
2023/10/02 11:44:12;;;;;;;19.05;7.18;;;21.70;99.90;;;;;;5064538;28;20369;-78
2023/10/02 11:46:40;;;;;;;21.60;7.82;;;21.70;99.90;;;;;;5064412;28;20036;-78
2023/10/02 11:49:06;;;;;;;21.98;7.53;;;21.80;99.90;;;;;;5067989;28;20289;-78
2023/10/02 11:51:33;;;;;;;21.15;7.57;;;21.90;99.90;;;;;;5065269;28;20450;-78
2023/10/02 11:53:59;;;;;;;19.02;7.47;;;22.00;99.90;;;;;;5081659;28;20116;-78
2023/10/02 11:56:28;;;;;;;22.40;8.13;;;22.10;99.90;;;;;;5068429;28;20429;-78
2023/10/02 11:58:56;;;;;;;21.02;7.13;;;22.10;99.90;;;;;;5066817;28;20445;-78
2023/10/02 12:01:22;;;;;;;23.58;7.88;;;22.20;99.90;;;;;;5068274;28;20450;-79
2023/10/02 12:03:49;;;;;;;19.02;6.97;;;22.30;99.90;;;;;;5069398;28;20031;-78
2023/10/02 12:06:16;;;;;;;20.08;7.32;;;22.40;99.90;;;;;;5068355;28;20058;-81
2023/10/02 12:08:44;;;;;;;22.88;7.88;;;22.50;99.90;;;;;;5083875;28;20113;-78
2023/10/02 12:11:12;;;;;;;22.30;7.90;;;22.60;99.90;;;;;;5068898;28;20019;-79
2023/10/02 12:13:37;;;;;;;20.88;7.60;;;22.70;99.90;;;;;;5066294;28;20492;-78
2023/10/02 12:16:05;;;;;;;20.77;7.35;;;22.70;99.80;;;;;;5068407;28;20103;-78
2023/10/02 12:18:33;;;;;;;19.35;7.38;;;22.90;99.60;;;;;;5069894;28;20040;-77
2023/10/02 12:21:00;;;;;;;19.38;7.30;;;23.10;99.30;;;;;;5069227;28;20135;-77
2023/10/02 12:23:28;;;;;;;17.73;7.00;;;23.10;99.10;;;;;;5072415;28;20094;-78
2023/10/02 12:25:56;;;;;;;21.48;7.60;;;23.30;98.40;;;;;;5066491;28;20020;-78
2023/10/02 12:28:21;;;;;;;17.05;6.82;;;23.40;98.20;;;;;;5071063;28;20059;-79
2023/10/02 12:30:48;;;;;;;18.45;7.63;;;23.60;98.30;;;;;;5070850;28;20056;-79
2023/10/02 12:33:14;;;;;;;23.33;7.38;;;23.70;98.30;;;;;;5069676;28;20044;-79
2023/10/02 12:35:40;;;;;;;17.73;6.85;;;23.80;98.00;;;;;;5072927;28;20078;-78
2023/10/02 12:38:07;;;;;;;17.70;6.97;;;23.90;97.10;;;;;;5071834;28;20446;-77
2023/10/02 12:40:34;;;;;;;18.23;6.55;;;24.10;96.80;;;;;;5069933;28;20071;-79
2023/10/02 12:43:03;;;;;;;19.55;7.22;;;24.30;96.60;;;;;;5069885;28;20495;-78
2023/10/02 12:45:35;;;;;;;18.85;6.70;;;24.60;96.00;;;;;;5058582;28;20068;-79
2023/10/02 12:48:06;;;;;;;;;;;24.90;96.20;;;;;;5072515;28;20033;-78
2023/10/02 12:50:37;;;;;;;18.00;6.63;;;25.40;96.10;;;;;;5069647;28;19916;-80
2023/10/02 12:53:04;;;;;;;18.88;6.78;;;25.90;95.00;;;;;;5066040;28;20056;-79
2023/10/02 12:55:38;;;;;;;17.38;6.60;;;26.50;94.40;;;;;;5061027;28;20571;-79
2023/10/02 12:58:04;;;;;;;17.27;6.97;;;27.10;94.00;;;;;;5065615;28;20063;-78
2023/10/02 13:00:33;;;;;;;18.92;7.50;;;27.60;92.90;;;;;;5062438;28;20029;-77
2023/10/02 13:02:59;;;;;;;21.42;7.50;;;27.90;91.40;;;;;;5066819;28;20069;-79
2023/10/02 13:05:28;;;;;;;22.63;7.90;;;28.10;90.00;;;;;;5069840;28;20029;-78
2023/10/02 13:07:56;;;;;;;19.65;7.85;;;28.30;88.20;;;;;;5073147;28;20089;-78
2023/10/02 13:10:25;;;;;;;17.77;7.50;;;28.40;87.20;;;;;;5070428;28;20081;-79
2023/10/02 13:12:51;;;;;;;25.15;8.07;;;28.50;86.10;;;;;;5070691;28;20024;-92
2023/10/02 13:15:16;;;;;;;20.17;7.53;;;28.80;84.90;;;;;;5068350;28;20077;-81
2023/10/02 13:17:43;;;;;;;21.95;7.72;;;29.10;84.00;;;;;;5071156;28;20025;-80
2023/10/02 13:20:10;;;;;;;20.33;7.75;;;29.30;83.10;;;;;;5070342;28;20074;-79
2023/10/02 13:22:36;;;;;;;21.58;8.20;;;29.80;81.30;;;;;;5074810;28;20192;-78
2023/10/02 13:25:05;;;;;;;19.25;8.25;;;30.30;80.40;;;;;;5079889;28;20026;-79
2023/10/02 13:27:31;;;;;;;20.48;8.13;;;30.50;79.60;;;;;;5071219;28;20117;-79
2023/10/02 13:29:57;;;;;;;21.63;8.70;;;30.80;78.90;;;;;;5061748;28;20483;-80
2023/10/02 13:32:23;;;;;;;19.67;7.65;;;30.70;77.40;;;;;;5080328;28;20567;-82
2023/10/02 13:34:51;;;;;;;20.27;8.25;;;30.90;76.10;;;;;;5072049;28;20041;-81
2023/10/02 13:37:17;;;;;;;24.05;9.13;;;31.10;74.70;;;;;;5066895;28;20110;-80
2023/10/02 13:39:43;;;;;;;18.83;8.48;;;31.10;74.30;;;;;;5066990;28;20453;-80
2023/10/02 13:42:09;;;;;;;19.67;8.13;;;31.10;72.90;;;;;;5069654;28;20044;-79
2023/10/02 13:44:34;;;;;;;19.88;8.38;;;31.00;72.50;;;;;;5068859;28;20028;-78
2023/10/02 13:47:00;;;;;;;20.75;8.30;;;30.80;73.00;;;;;;5072443;28;20028;-80
2023/10/02 13:49:27;;;;;;;18.83;8.10;;;30.80;72.30;;;;;;5073811;28;20365;-79
2023/10/02 13:51:52;;;;;;;18.77;7.88;;;30.60;71.60;;;;;;5071269;28;20016;-79
2023/10/02 13:54:18;;;;;;;21.38;8.98;;;30.40;73.40;;;;;;5069697;28;20536;-78
2023/10/02 13:56:45;;;;;;;21.33;8.38;;;30.00;73.30;;;;;;5063316;28;20099;-78
2023/10/02 13:59:11;;;;;;;21.10;8.02;;;29.40;74.60;;;;;;5073245;28;20111;-78
2023/10/02 14:01:36;;;;;;;23.90;8.80;;;29.20;76.80;;;;;;5074445;28;20158;-79